createdAt,value
2023-06-30T00:00:14.532Z,4.50
2023-06-30T00:02:43.086Z,3.70
2023-06-30T00:05:14.882Z,3.53
2023-06-30T00:07:44.340Z,3.90
2023-06-30T00:10:12.744Z,3.55
2023-06-30T00:12:41.341Z,3.60
2023-06-30T00:15:09.895Z,3.92
2023-06-30T00:17:38.018Z,3.55
2023-06-30T00:20:07.537Z,4.20
2023-06-30T00:22:37.192Z,4.03
2023-06-30T00:25:06.144Z,4.10
2023-06-30T00:27:34.222Z,3.90
2023-06-30T00:30:02.295Z,3.85
2023-06-30T00:32:32.903Z,3.85
2023-06-30T00:35:01.169Z,3.70
2023-06-30T00:37:29.255Z,4.18
2023-06-30T00:39:58.721Z,3.63
2023-06-30T00:42:26.783Z,3.85
2023-06-30T00:44:55.212Z,3.75
2023-06-30T00:47:23.765Z,4.00
2023-06-30T00:49:53.146Z,3.70
2023-06-30T00:52:21.609Z,3.90
2023-06-30T00:54:49.992Z,3.45
2023-06-30T00:57:19.431Z,4.40
2023-06-30T00:59:47.449Z,3.75
2023-06-30T01:02:20.721Z,3.88
2023-06-30T01:04:54.953Z,4.30
2023-06-30T01:07:29.302Z,4.15
2023-06-30T01:10:01.004Z,3.88
2023-06-30T01:12:30.881Z,4.32
2023-06-30T01:14:59.386Z,3.72
2023-06-30T01:17:29.030Z,3.58
2023-06-30T01:19:59.773Z,3.70
2023-06-30T01:22:33.344Z,3.70
2023-06-30T01:25:07.801Z,3.90
2023-06-30T01:27:37.417Z,3.63
2023-06-30T01:30:07.648Z,3.70
2023-06-30T01:32:35.999Z,4.50
2023-06-30T01:35:04.176Z,3.92
2023-06-30T01:37:32.232Z,3.70
2023-06-30T01:40:00.735Z,4.20
2023-06-30T01:42:29.470Z,4.15
2023-06-30T01:45:00.280Z,3.70
2023-06-30T01:47:28.814Z,3.95
2023-06-30T01:49:57.434Z,4.63
2023-06-30T01:52:25.581Z,4.38
2023-06-30T01:54:53.683Z,3.90
2023-06-30T01:57:21.902Z,4.20
2023-06-30T01:59:49.972Z,3.90
2023-06-30T02:02:19.413Z,4.00
2023-06-30T02:04:47.468Z,4.38
2023-06-30T02:07:15.596Z,4.00
2023-06-30T02:09:48.362Z,4.50
2023-06-30T02:12:17.446Z,4.13
2023-06-30T02:14:45.574Z,3.75
2023-06-30T02:17:14.537Z,3.28
2023-06-30T02:19:44.572Z,4.30
2023-06-30T02:22:12.720Z,3.72
2023-06-30T02:24:40.792Z,4.15
2023-06-30T02:27:10.120Z,3.97
2023-06-30T02:29:38.178Z,4.60
2023-06-30T02:32:06.825Z,4.38
2023-06-30T02:34:34.847Z,4.38
2023-06-30T02:37:04.392Z,4.25
2023-06-30T02:39:32.677Z,4.30
2023-06-30T02:42:00.710Z,4.50
2023-06-30T02:44:28.772Z,4.78
2023-06-30T02:46:56.838Z,5.75
2023-06-30T02:49:25.676Z,4.93
2023-06-30T02:51:53.714Z,5.47
2023-06-30T02:54:23.189Z,5.90
2023-06-30T02:56:51.219Z,6.50
2023-06-30T02:59:19.261Z,6.38
2023-06-30T03:01:47.407Z,6.97
2023-06-30T03:04:15.606Z,6.43
2023-06-30T03:06:43.722Z,7.18
2023-06-30T03:09:11.785Z,7.20
2023-06-30T03:11:41.247Z,7.32
2023-06-30T03:14:09.279Z,7.85
2023-06-30T03:16:37.804Z,7.30
2023-06-30T03:19:06.032Z,7.90
2023-06-30T03:21:34.079Z,7.28
2023-06-30T03:24:02.345Z,7.15
2023-06-30T03:26:30.587Z,7.82
2023-06-30T03:29:02.049Z,8.82
2023-06-30T03:31:30.110Z,7.63
2023-06-30T03:34:00.008Z,8.35
2023-06-30T03:36:28.131Z,8.10
2023-06-30T03:38:56.162Z,8.35
2023-06-30T03:41:24.219Z,8.15
2023-06-30T03:43:52.266Z,8.65
2023-06-30T03:46:21.785Z,8.50
2023-06-30T03:48:49.860Z,8.38
2023-06-30T03:51:17.889Z,8.43
2023-06-30T03:53:45.986Z,8.15
2023-06-30T03:56:14.391Z,8.20
2023-06-30T03:58:42.445Z,8.13
2023-06-30T04:01:12.442Z,8.38
2023-06-30T04:03:41.998Z,7.93
2023-06-30T04:06:10.198Z,9.27
2023-06-30T04:08:38.261Z,8.68
2023-06-30T04:11:06.296Z,8.70
2023-06-30T04:13:34.348Z,8.65
2023-06-30T04:16:02.372Z,8.95
2023-06-30T04:18:30.400Z,9.10
2023-06-30T04:20:59.800Z,9.18
2023-06-30T04:23:27.846Z,8.98
2023-06-30T04:25:55.879Z,8.73
2023-06-30T04:28:23.961Z,8.57
2023-06-30T04:30:51.992Z,8.73
2023-06-30T04:33:20.583Z,9.00
2023-06-30T04:35:49.130Z,8.88
2023-06-30T04:38:22.751Z,8.60
2023-06-30T04:40:51.576Z,9.27
2023-06-30T04:43:19.656Z,9.00
2023-06-30T04:45:48.591Z,8.93
2023-06-30T04:48:16.680Z,8.57
2023-06-30T04:50:44.995Z,9.95
2023-06-30T04:53:13.040Z,9.23
2023-06-30T04:55:42.613Z,9.60
2023-06-30T04:58:10.830Z,9.60
2023-06-30T05:00:39.387Z,8.85
2023-06-30T05:03:07.709Z,9.93
2023-06-30T05:05:35.805Z,9.70
2023-06-30T05:08:03.922Z,9.60
2023-06-30T05:10:31.961Z,8.48
2023-06-30T05:13:01.460Z,9.43
2023-06-30T05:15:29.584Z,9.82
2023-06-30T05:17:57.637Z,9.93
2023-06-30T05:20:25.897Z,9.52
2023-06-30T05:22:54.078Z,10.10
2023-06-30T05:25:22.108Z,9.63
2023-06-30T05:27:50.174Z,11.30
2023-06-30T05:30:20.726Z,9.60
2023-06-30T05:32:48.854Z,10.27
2023-06-30T05:35:17.012Z,10.52
2023-06-30T05:37:45.055Z,10.70
2023-06-30T05:40:13.677Z,9.90
2023-06-30T05:42:41.903Z,10.23
2023-06-30T05:45:10.480Z,10.10
2023-06-30T05:47:40.195Z,10.25
2023-06-30T05:50:09.245Z,10.13
2023-06-30T05:52:37.322Z,10.00
2023-06-30T05:55:06.302Z,10.68
2023-06-30T05:57:34.626Z,10.68
2023-06-30T06:00:02.713Z,10.48
2023-06-30T06:02:30.881Z,9.95
2023-06-30T06:05:00.557Z,11.20
2023-06-30T06:07:28.717Z,10.95
2023-06-30T06:09:56.872Z,11.32
2023-06-30T06:12:25.022Z,10.40
2023-06-30T06:14:53.219Z,11.40
2023-06-30T06:17:21.439Z,10.60
2023-06-30T06:19:49.472Z,10.57
2023-06-30T06:22:18.883Z,11.77
2023-06-30T06:24:46.955Z,11.23
2023-06-30T06:27:15.078Z,10.95
2023-06-30T06:29:43.086Z,12.35
2023-06-30T06:32:11.356Z,11.70
2023-06-30T06:34:39.817Z,11.77
2023-06-30T06:37:07.949Z,11.73
2023-06-30T06:39:37.324Z,10.38
2023-06-30T06:42:06.241Z,10.70
2023-06-30T06:44:34.254Z,12.07
2023-06-30T06:47:45.331Z,11.18
2023-06-30T06:50:13.454Z,10.93
2023-06-30T06:52:41.587Z,10.57
2023-06-30T06:55:11.184Z,10.73
2023-06-30T06:57:39.391Z,11.40
2023-06-30T07:00:08.837Z,12.10
2023-06-30T07:02:36.935Z,12.18
2023-06-30T07:05:05.421Z,11.82
2023-06-30T07:07:33.772Z,11.73
2023-06-30T07:10:02.064Z,11.10
2023-06-30T07:12:31.511Z,12.60
2023-06-30T07:14:59.548Z,12.07
2023-06-30T07:17:27.752Z,11.77
2023-06-30T07:19:55.841Z,10.88
2023-06-30T07:22:24.038Z,11.52
2023-06-30T07:24:52.161Z,11.25
2023-06-30T07:27:20.198Z,11.93
2023-06-30T07:29:50.698Z,12.80
2023-06-30T07:32:18.953Z,12.25
2023-06-30T07:34:47.334Z,12.15
2023-06-30T07:37:15.576Z,11.93
2023-06-30T07:39:43.640Z,11.40
2023-06-30T07:42:11.720Z,11.38
2023-06-30T07:44:39.780Z,12.05
2023-06-30T07:47:09.350Z,12.85
2023-06-30T07:49:37.407Z,11.77
2023-06-30T07:52:06.163Z,10.95
2023-06-30T07:54:34.155Z,12.50
2023-06-30T07:57:02.221Z,11.98
2023-06-30T07:59:30.351Z,12.32
2023-06-30T08:01:58.384Z,11.77
2023-06-30T08:04:27.958Z,12.18
2023-06-30T08:06:56.685Z,11.88
2023-06-30T08:09:24.711Z,12.40
2023-06-30T08:11:52.756Z,11.55
2023-06-30T08:14:20.747Z,13.32
2023-06-30T08:16:48.971Z,11.27
2023-06-30T08:19:38.162Z,11.20
2023-06-30T08:22:07.276Z,12.60
2023-06-30T08:24:35.344Z,12.13
2023-06-30T08:27:03.757Z,12.15
2023-06-30T08:29:31.800Z,11.48
2023-06-30T08:31:59.822Z,11.65
2023-06-30T08:34:27.924Z,11.73
2023-06-30T08:36:56.752Z,12.10
2023-06-30T08:39:28.556Z,11.75
2023-06-30T08:41:57.760Z,12.13
2023-06-30T08:44:27.401Z,11.25
2023-06-30T08:46:57.438Z,11.43
2023-06-30T08:49:27.493Z,12.15
2023-06-30T08:55:16.704Z,11.82
2023-06-30T08:57:46.674Z,12.35
2023-06-30T09:00:19.946Z,10.90
2023-06-30T09:03:33.656Z,11.93
2023-06-30T09:06:37.189Z,12.15
2023-06-30T09:09:44.227Z,11.52
2023-06-30T09:12:37.265Z,10.85
2023-06-30T09:15:06.401Z,10.73
2023-06-30T09:17:34.970Z,11.40
2023-06-30T09:20:03.181Z,9.80
2023-06-30T09:22:54.920Z,10.27
2023-06-30T09:25:41.690Z,10.57
2023-06-30T09:28:16.032Z,10.27
2023-06-30T09:30:47.178Z,11.00
2023-06-30T09:33:16.478Z,12.25
2023-06-30T09:35:45.998Z,10.43
2023-06-30T09:38:15.591Z,10.45
2023-06-30T09:40:47.708Z,10.70
2023-06-30T09:43:20.727Z,12.05
2023-06-30T09:45:55.313Z,10.65
2023-06-30T09:48:25.302Z,10.32
2023-06-30T09:50:54.639Z,10.85
2023-06-30T09:53:22.724Z,10.15
2023-06-30T09:55:52.053Z,10.65
2023-06-30T09:58:22.736Z,11.13
2023-06-30T10:00:53.461Z,10.90
2023-06-30T10:03:21.863Z,11.43
2023-06-30T10:05:50.635Z,10.07
2023-06-30T10:08:19.227Z,9.32
2023-06-30T10:10:47.373Z,9.80
2023-06-30T10:13:17.902Z,10.27
2023-06-30T10:15:48.187Z,9.32
2023-06-30T10:18:19.251Z,10.27
2023-06-30T10:20:49.973Z,9.32
2023-06-30T10:23:20.231Z,9.88
2023-06-30T10:25:49.248Z,9.52
2023-06-30T10:28:18.685Z,9.38
2023-06-30T10:30:51.108Z,9.45
2023-06-30T10:33:19.303Z,9.65
2023-06-30T10:35:48.166Z,9.30
2023-06-30T10:38:16.500Z,9.45
2023-06-30T10:40:44.572Z,10.18
2023-06-30T10:43:14.769Z,9.95
2023-06-30T10:46:11.327Z,8.52
2023-06-30T10:48:41.952Z,9.45
2023-06-30T10:51:13.658Z,9.63
2023-06-30T10:53:44.817Z,9.27
2023-06-30T10:56:12.935Z,9.52
2023-06-30T10:58:44.170Z,9.45
2023-06-30T11:01:16.719Z,9.98
2023-06-30T11:04:21.201Z,9.05
2023-06-30T11:07:04.487Z,9.80
2023-06-30T11:10:07.407Z,9.88
2023-06-30T11:12:54.424Z,9.68
2023-06-30T11:15:39.788Z,9.95
2023-06-30T11:18:13.002Z,9.85
2023-06-30T11:20:58.650Z,9.38
2023-06-30T11:23:28.800Z,9.90
2023-06-30T11:25:59.295Z,9.90
2023-06-30T11:28:28.182Z,9.18
2023-06-30T11:30:56.413Z,10.65
2023-06-30T11:33:26.566Z,9.50
2023-06-30T11:36:00.316Z,9.95
2023-06-30T11:38:28.577Z,10.13
2023-06-30T11:41:01.323Z,9.60
2023-06-30T11:43:34.460Z,10.35
2023-06-30T11:46:03.117Z,9.13
2023-06-30T11:48:39.834Z,9.57
2023-06-30T11:51:08.106Z,9.23
2023-06-30T11:53:36.130Z,9.32
2023-06-30T11:56:04.302Z,9.63
2023-06-30T11:58:32.369Z,9.10
2023-06-30T12:01:04.709Z,9.07
2023-06-30T12:03:34.257Z,10.02
2023-06-30T12:06:02.676Z,9.60
2023-06-30T12:08:31.877Z,9.82
2023-06-30T12:11:00.105Z,10.10
2023-06-30T12:13:30.160Z,8.95
2023-06-30T12:15:59.201Z,9.15
2023-06-30T12:18:37.727Z,8.98
2023-06-30T12:21:10.646Z,10.38
2023-06-30T12:23:42.349Z,9.30
2023-06-30T12:26:10.464Z,9.82
2023-06-30T12:28:38.753Z,9.52
2023-06-30T12:31:06.857Z,9.43
2023-06-30T12:33:36.316Z,10.45
2023-06-30T12:36:06.799Z,8.50
2023-06-30T12:38:35.047Z,9.90
2023-06-30T12:41:03.739Z,9.07
2023-06-30T12:43:34.422Z,9.82
2023-06-30T12:46:02.989Z,9.95
2023-06-30T12:48:31.682Z,9.55
2023-06-30T12:51:01.167Z,10.55
2023-06-30T12:53:29.356Z,10.27
2023-06-30T12:55:57.386Z,10.95
2023-06-30T12:58:26.299Z,12.48
2023-06-30T13:01:00.927Z,12.65
2023-06-30T13:03:29.447Z,13.38
2023-06-30T13:05:57.546Z,13.90
2023-06-30T13:08:26.966Z,13.77
2023-06-30T13:10:56.000Z,15.20
2023-06-30T13:13:24.405Z,17.58
2023-06-30T13:15:54.005Z,15.23
2023-06-30T13:18:22.041Z,15.30
2023-06-30T13:20:50.083Z,14.45
2023-06-30T13:23:28.001Z,14.25
2023-06-30T13:26:07.296Z,12.80
2023-06-30T13:28:35.496Z,11.93
2023-06-30T13:31:04.643Z,11.82
2023-06-30T13:33:32.967Z,11.85
2023-06-30T13:36:01.432Z,11.73
2023-06-30T13:38:29.592Z,12.15
2023-06-30T13:40:57.652Z,11.27
2023-06-30T13:43:27.356Z,12.10
2023-06-30T13:45:56.352Z,11.02
2023-06-30T13:48:24.390Z,12.43
2023-06-30T13:50:52.504Z,12.25
2023-06-30T13:53:20.731Z,11.45
2023-06-30T13:55:49.053Z,12.00
2023-06-30T13:58:17.399Z,12.00
2023-06-30T14:00:48.152Z,12.85
2023-06-30T14:03:17.577Z,12.70
2023-06-30T14:05:46.478Z,12.45
2023-06-30T14:08:14.907Z,14.25
2023-06-30T14:10:43.166Z,12.70
2023-06-30T14:13:11.478Z,12.50
2023-06-30T14:15:50.880Z,12.75
2023-06-30T14:18:18.905Z,12.90
2023-06-30T14:20:48.642Z,13.77
2023-06-30T14:23:16.919Z,14.05
2023-06-30T14:25:45.179Z,14.85
2023-06-30T14:28:13.509Z,14.65
2023-06-30T14:30:41.586Z,16.85
2023-06-30T14:33:10.982Z,15.63
2023-06-30T14:35:39.139Z,16.25
2023-06-30T14:38:07.199Z,15.63
2023-06-30T14:40:35.314Z,16.17
2023-06-30T14:43:05.057Z,16.60
2023-06-30T14:45:33.302Z,16.98
2023-06-30T14:48:01.420Z,17.00
2023-06-30T14:50:30.864Z,16.75
2023-06-30T14:52:58.918Z,17.00
2023-06-30T14:55:26.978Z,17.20
2023-06-30T14:57:55.033Z,20.00
2023-06-30T15:00:23.202Z,19.13
2023-06-30T15:02:51.358Z,18.38
2023-06-30T15:05:19.580Z,17.70
2023-06-30T15:07:49.051Z,19.10
2023-06-30T15:10:17.055Z,19.92
2023-06-30T15:12:45.105Z,19.83
2023-06-30T15:15:13.156Z,19.05
2023-06-30T15:17:41.228Z,18.02
2023-06-30T15:20:10.240Z,18.50
2023-06-30T15:22:38.286Z,18.25
2023-06-30T15:25:08.528Z,17.50
2023-06-30T15:27:36.659Z,17.10
2023-06-30T15:30:07.273Z,18.38
2023-06-30T15:32:35.995Z,19.15
2023-06-30T15:35:05.856Z,18.80
2023-06-30T15:37:33.906Z,19.30
2023-06-30T15:40:02.646Z,18.20
2023-06-30T15:42:32.812Z,18.48
2023-06-30T15:45:01.062Z,19.48
2023-06-30T15:47:29.233Z,19.25
2023-06-30T15:49:57.328Z,16.48
2023-06-30T15:52:25.368Z,15.63
2023-06-30T15:55:10.040Z,13.73
2023-06-30T15:57:39.929Z,10.35
2023-06-30T16:00:10.425Z,8.82
2023-06-30T16:02:39.060Z,9.20
2023-06-30T16:05:09.388Z,9.45
2023-06-30T16:07:37.801Z,8.15
2023-06-30T16:10:06.977Z,7.28
2023-06-30T16:12:35.509Z,8.55
2023-06-30T16:15:07.155Z,7.72
2023-06-30T16:17:35.282Z,7.35
2023-06-30T16:20:03.590Z,7.75
2023-06-30T16:22:31.644Z,7.63
2023-06-30T16:24:59.735Z,8.05
2023-06-30T16:27:28.270Z,7.72
2023-06-30T16:30:27.574Z,7.38
2023-06-30T16:32:58.757Z,6.70
2023-06-30T16:35:27.441Z,7.32
2023-06-30T16:37:56.377Z,8.48
2023-06-30T16:40:24.634Z,7.40
2023-06-30T16:42:53.871Z,7.13
2023-06-30T16:45:22.131Z,7.43
2023-06-30T16:47:51.678Z,8.05
2023-06-30T16:50:19.897Z,7.18
2023-06-30T16:52:48.019Z,7.57
2023-06-30T16:55:16.125Z,7.22
2023-06-30T16:57:44.704Z,7.90
2023-06-30T17:00:14.009Z,8.27
2023-06-30T17:02:42.153Z,6.85
2023-06-30T17:05:12.209Z,7.55
2023-06-30T17:07:40.365Z,7.68
2023-06-30T17:10:09.036Z,7.68
2023-06-30T17:12:39.334Z,7.78
2023-06-30T17:15:10.061Z,8.07
2023-06-30T17:17:38.756Z,7.68
2023-06-30T17:20:08.345Z,8.02
2023-06-30T17:22:38.432Z,8.15
2023-06-30T17:25:07.589Z,8.57
2023-06-30T17:27:35.627Z,8.98
2023-06-30T17:30:04.121Z,7.75
2023-06-30T17:32:32.341Z,7.65
2023-06-30T17:35:00.494Z,7.22
2023-06-30T17:37:28.545Z,8.93
2023-06-30T17:39:57.997Z,8.13
2023-06-30T17:42:26.040Z,7.35
2023-06-30T17:44:54.220Z,7.60
2023-06-30T17:47:22.284Z,7.90
2023-06-30T17:49:50.320Z,7.95
2023-06-30T17:52:18.365Z,7.90
2023-06-30T17:54:47.451Z,7.88
2023-06-30T17:57:16.926Z,8.32
2023-06-30T17:59:44.965Z,8.05
2023-06-30T18:02:13.439Z,9.65
2023-06-30T18:04:42.099Z,8.85
2023-06-30T18:07:12.478Z,8.75
2023-06-30T18:09:42.383Z,9.32
2023-06-30T18:12:11.441Z,8.35
2023-06-30T18:14:42.562Z,8.25
2023-06-30T18:17:10.794Z,7.97
2023-06-30T18:19:41.840Z,7.53
2023-06-30T18:22:10.046Z,8.18
2023-06-30T18:24:43.966Z,8.10
2023-06-30T18:27:12.313Z,8.00
2023-06-30T18:29:43.066Z,7.82
2023-06-30T18:32:11.376Z,8.27
2023-06-30T18:34:39.628Z,8.20
2023-06-30T18:37:08.274Z,8.25
2023-06-30T18:39:36.954Z,8.30
2023-06-30T18:42:05.435Z,8.30
2023-06-30T18:44:36.052Z,7.97
2023-06-30T18:47:06.252Z,8.35
2023-06-30T18:49:34.864Z,8.88
2023-06-30T18:52:08.352Z,8.77
2023-06-30T18:54:36.415Z,8.95
2023-06-30T18:57:04.840Z,8.82
2023-06-30T18:59:32.896Z,9.07
2023-06-30T19:02:00.954Z,9.48
2023-06-30T19:04:30.406Z,9.25
2023-06-30T19:06:58.483Z,9.23
2023-06-30T19:09:28.078Z,9.65
2023-06-30T19:11:58.627Z,8.65
2023-06-30T19:14:27.658Z,9.82
2023-06-30T19:16:55.757Z,9.57
2023-06-30T19:19:24.698Z,9.63
2023-06-30T19:21:54.297Z,8.63
2023-06-30T19:24:22.307Z,9.93
2023-06-30T19:26:50.621Z,9.15
2023-06-30T19:29:18.704Z,8.98
2023-06-30T19:31:46.856Z,9.45
2023-06-30T19:34:14.909Z,9.00
2023-06-30T19:36:43.023Z,8.60
2023-06-30T19:39:12.459Z,8.80
2023-06-30T19:41:40.611Z,8.48
2023-06-30T19:44:08.656Z,8.40
2023-06-30T19:46:36.857Z,8.95
2023-06-30T19:49:04.948Z,9.05
2023-06-30T19:51:33.063Z,9.98
2023-06-30T19:54:01.083Z,10.70
2023-06-30T19:56:30.525Z,10.88
2023-06-30T19:58:58.543Z,9.70
2023-06-30T20:01:27.624Z,9.65
2023-06-30T20:03:55.802Z,9.15
2023-06-30T20:06:23.908Z,8.10
2023-06-30T20:08:52.078Z,8.65
2023-06-30T20:11:20.204Z,7.78
2023-06-30T20:13:49.659Z,7.78
2023-06-30T20:16:17.757Z,6.70
2023-06-30T20:18:45.867Z,7.10
2023-06-30T20:21:14.258Z,6.40
2023-06-30T20:23:42.333Z,5.60
2023-06-30T20:26:10.400Z,6.15
2023-06-30T20:28:38.477Z,6.38
2023-06-30T20:31:07.898Z,5.72
2023-06-30T20:33:36.023Z,6.50
2023-06-30T20:36:04.194Z,5.55
2023-06-30T20:38:32.332Z,6.47
2023-06-30T20:41:00.412Z,6.10
2023-06-30T20:43:28.452Z,5.82
2023-06-30T20:45:56.922Z,6.20
2023-06-30T20:48:26.427Z,6.78
2023-06-30T20:50:54.594Z,6.07
2023-06-30T20:53:22.661Z,5.50
2023-06-30T20:55:51.629Z,6.70
2023-06-30T20:58:20.385Z,5.68
2023-06-30T21:00:56.112Z,6.75
2023-06-30T21:03:24.296Z,7.65
2023-06-30T21:05:53.811Z,7.95
2023-06-30T21:08:22.914Z,11.23
2023-06-30T21:10:52.404Z,8.80
2023-06-30T21:13:20.509Z,8.13
2023-06-30T21:15:48.609Z,9.18
2023-06-30T21:18:16.696Z,9.23
2023-06-30T21:20:45.138Z,11.25
2023-06-30T21:23:14.804Z,11.45
2023-06-30T21:25:43.596Z,13.57
2023-06-30T21:28:20.120Z,13.77
2023-06-30T21:30:48.382Z,12.75
2023-06-30T21:33:18.050Z,14.85
2023-06-30T21:35:46.253Z,15.77
2023-06-30T21:38:15.850Z,14.73
2023-06-30T21:40:46.197Z,12.82
2023-06-30T21:43:14.506Z,12.98
2023-06-30T21:45:42.835Z,12.25
2023-06-30T21:48:12.523Z,10.30
2023-06-30T21:50:41.792Z,7.72
2023-06-30T21:53:09.825Z,8.68
2023-06-30T21:55:39.309Z,11.00
2023-06-30T21:58:18.478Z,10.38
2023-06-30T22:00:51.227Z,9.35
2023-06-30T22:03:19.711Z,8.07
2023-06-30T22:05:47.898Z,6.05
2023-06-30T22:08:16.162Z,8.82
2023-06-30T22:10:46.229Z,8.25
2023-06-30T22:13:14.465Z,7.28
2023-06-30T22:15:42.701Z,8.20
2023-06-30T22:18:10.917Z,6.97
2023-06-30T22:20:38.933Z,5.57
2023-06-30T22:23:07.013Z,7.25
2023-06-30T22:25:35.304Z,8.98
2023-06-30T22:28:05.070Z,6.97
2023-06-30T22:30:33.654Z,5.85
2023-06-30T22:33:01.715Z,6.43
2023-06-30T22:35:29.806Z,6.65
2023-06-30T22:37:57.906Z,6.20
2023-06-30T22:40:25.950Z,7.80
2023-06-30T22:42:54.773Z,7.28
2023-06-30T22:45:24.359Z,5.85
2023-06-30T22:47:52.423Z,5.80
2023-06-30T22:50:21.376Z,7.35
2023-06-30T22:52:49.474Z,7.35
2023-06-30T22:55:17.520Z,8.57
2023-06-30T22:57:45.664Z,6.05
2023-06-30T23:00:14.963Z,7.10
2023-06-30T23:02:44.402Z,8.65
2023-06-30T23:05:12.820Z,6.63
2023-06-30T23:07:40.898Z,8.02
2023-06-30T23:10:10.028Z,8.07
2023-06-30T23:12:38.107Z,7.57
2023-06-30T23:15:06.995Z,7.60
2023-06-30T23:17:35.467Z,6.95
2023-06-30T23:20:05.622Z,6.57
2023-06-30T23:22:33.788Z,7.38
2023-06-30T23:25:02.980Z,6.38
2023-06-30T23:27:31.039Z,6.25
2023-06-30T23:29:59.517Z,6.70
2023-06-30T23:32:27.721Z,6.65
2023-06-30T23:34:55.830Z,7.20
2023-06-30T23:37:25.238Z,7.13
2023-06-30T23:39:53.417Z,7.13
2023-06-30T23:42:21.578Z,6.40
2023-06-30T23:44:49.645Z,6.40
2023-06-30T23:47:18.605Z,6.60
2023-06-30T23:49:48.508Z,6.30
2023-06-30T23:52:17.392Z,5.78
2023-06-30T23:54:46.797Z,7.80
2023-06-30T23:57:14.895Z,6.97
2023-06-30T23:59:42.961Z,6.95
